Idre Airport


Codes: ESUE/IDB
Name: Idre Airport
City: Idre
Country: Sweden
Elevation: 0 ft.

Photos at Idre Airport


   Photos courtesy of SpottingLog. You can add your own sightings and photos by signing up for a free trial today.



No photos found.

Weather at Idre Airport


Time (UTC)DescriptionTempratureWindCloud coverageVisibilityPressureHumidity
13-Jun-2024 03:00Overcast Clouds7°C2 mph, NE86%10000m1010hPa91%
13-Jun-2024 06:00Overcast Clouds8°C2 mph, E89%10000m1010hPa87%
13-Jun-2024 09:00Light Rain11°C9 mph, SE91%10000m1009hPa72%
13-Jun-2024 12:00Light Rain14°C9 mph, SE96%10000m1008hPa61%
13-Jun-2024 15:00Light Rain14°C7 mph, E98%10000m1008hPa62%
13-Jun-2024 18:00Light Rain11°C4 mph, SE98%10000m1009hPa80%
13-Jun-2024 21:00Light Rain7°C2 mph, W73%10000m1010hPa94%
14-Jun-2024 00:00Scattered Clouds6°C0 mph, W50%10000m1010hPa92%
14-Jun-2024 03:00Few Clouds6°C0 mph, W21%10000m1011hPa92%
14-Jun-2024 06:00Scattered Clouds10°C2 mph, E33%10000m1010hPa81%
14-Jun-2024 09:00Light Rain14°C2 mph, E36%10000m1009hPa59%
14-Jun-2024 12:00Light Rain14°C7 mph, S53%10000m1009hPa65%
14-Jun-2024 15:00Light Rain15°C4 mph, S61%10000m1009hPa57%
14-Jun-2024 18:00Light Rain13°C4 mph, SW72%10000m1010hPa70%
14-Jun-2024 21:00Broken Clouds9°C4 mph, S77%10000m1012hPa83%
15-Jun-2024 00:00Broken Clouds7°C2 mph, S76%10000m1012hPa90%
15-Jun-2024 03:00Scattered Clouds7°C2 mph, S38%10000m1012hPa91%
15-Jun-2024 06:00Broken Clouds12°C4 mph, S51%10000m1011hPa70%
15-Jun-2024 09:00Overcast Clouds14°C9 mph, S99%10000m1010hPa59%
15-Jun-2024 12:00Light Rain12°C9 mph, S100%10000m1011hPa75%
15-Jun-2024 15:00Overcast Clouds13°C4 mph, SE100%10000m1010hPa67%
15-Jun-2024 18:00Light Rain14°C7 mph, SE99%10000m1008hPa72%
15-Jun-2024 21:00Light Rain11°C7 mph, SE100%10000m1008hPa83%
16-Jun-2024 00:00Light Rain10°C11 mph, SE100%6970m1007hPa92%
16-Jun-2024 03:00Light Rain9°C9 mph, SE100%1595m1006hPa97%
16-Jun-2024 06:00Light Rain10°C9 mph, S100%10000m1008hPa90%
16-Jun-2024 09:00Light Rain14°C13 mph, S98%10000m1008hPa63%
16-Jun-2024 12:00Light Rain15°C11 mph, S93%10000m1008hPa56%
16-Jun-2024 15:00Light Rain15°C11 mph, S97%10000m1009hPa63%
16-Jun-2024 18:00Overcast Clouds15°C7 mph, S97%10000m1009hPa64%
16-Jun-2024 21:00Overcast Clouds11°C4 mph, S98%10000m1010hPa80%
17-Jun-2024 00:00Light Rain10°C9 mph, SE99%10000m1010hPa93%
17-Jun-2024 03:00Light Rain10°C7 mph, S91%10000m1011hPa85%
17-Jun-2024 06:00Overcast Clouds11°C9 mph, S95%10000m1011hPa77%
17-Jun-2024 09:00Light Rain13°C11 mph, S99%10000m1011hPa70%
17-Jun-2024 12:00Light Rain12°C9 mph, S99%10000m1012hPa78%
17-Jun-2024 15:00Light Rain15°C13 mph, S78%10000m1011hPa56%
17-Jun-2024 18:00Broken Clouds14°C9 mph, S59%10000m1011hPa65%
17-Jun-2024 21:00Broken Clouds10°C4 mph, S66%10000m1012hPa88%
18-Jun-2024 00:00Light Rain10°C4 mph, SE83%10000m1012hPa92%